Time;durP1;ratioP1;P1;durP2;ratioP2;P2;SDS_P1;SDS_P2;PMS_P1;PMS_P2;Temp;Humidity;BMP_temperature;BMP_pressure;BME280_temperature;BME280_humidity;BME280_pressure;Samples;Min_cycle;Max_cycle;Signal;HPM_P1;HPM_P2
2023/09/03 00:02:22;;;;;;;5.00;3.50;;;;;;;17.14;94.82;101227.91;105583;1256;83469;-58
2023/09/03 00:04:49;;;;;;;4.60;4.10;;;;;;;17.15;94.86;101228.71;105559;1251;72583;-58
2023/09/03 00:07:16;;;;;;;4.80;3.80;;;;;;;17.15;94.87;101232.25;105612;1253;69060;-58
2023/09/03 00:09:43;;;;;;;4.70;3.80;;;;;;;17.15;94.87;101234.18;105630;1253;69179;-58
2023/09/03 00:12:10;;;;;;;4.20;3.80;;;;;;;17.13;94.84;101238.86;105648;1256;75648;-60
2023/09/03 00:14:37;;;;;;;4.10;3.70;;;;;;;17.14;94.81;101243.08;105616;1254;83456;-59
2023/09/03 00:17:05;;;;;;;6.60;4.00;;;;;;;17.14;94.75;101246.06;105571;1256;73751;-58
2023/09/03 00:19:32;;;;;;;4.90;4.30;;;;;;;17.13;94.52;101253.53;105536;1256;69208;-59
2023/09/03 00:21:59;;;;;;;5.50;4.30;;;;;;;17.10;94.53;101254.56;105626;1256;69186;-58
2023/09/03 00:24:25;;;;;;;4.90;3.70;;;;;;;17.07;94.46;101255.45;105587;1253;76030;-58
2023/09/03 00:26:52;;;;;;;5.30;4.10;;;;;;;17.05;94.38;101258.03;105537;1255;83811;-58
2023/09/03 00:29:19;;;;;;;4.40;4.00;;;;;;;17.03;94.50;101261.31;105537;1251;72625;-58
2023/09/03 00:31:46;;;;;;;4.50;4.00;;;;;;;16.99;94.53;101257.23;105541;1256;69044;-58
2023/09/03 00:34:13;;;;;;;4.90;4.30;;;;;;;16.97;94.53;101258.77;105446;1256;69065;-58
2023/09/03 00:36:40;;;;;;;5.10;4.30;;;;;;;16.93;94.47;101251.20;105624;1254;74607;-58
2023/09/03 00:39:07;;;;;;;7.00;4.50;;;;;;;16.88;94.29;101250.40;105587;1254;81439;-59
2023/09/03 00:41:34;;;;;;;5.00;4.20;;;;;;;16.83;94.31;101251.90;105535;1257;73688;-58
2023/09/03 00:44:02;;;;;;;6.50;5.00;;;;;;;16.76;94.28;101250.96;105579;1254;69084;-59
2023/09/03 00:46:30;;;;;;;5.50;4.70;;;;;;;16.70;94.22;101249.86;105557;1256;69227;-58
2023/09/03 00:48:57;;;;;;;5.10;4.50;;;;;;;16.63;94.42;101247.37;105544;1254;75548;-58
2023/09/03 00:51:24;;;;;;;7.70;4.60;;;;;;;16.57;94.46;101243.59;105613;1256;82479;-58
2023/09/03 00:53:54;;;;;;;6.00;4.50;;;;;;;16.52;94.50;101244.01;105554;1254;72765;-59
2023/09/03 00:56:21;;;;;;;6.20;5.00;;;;;;;16.45;94.53;101244.50;105604;1254;69710;-58
2023/09/03 00:58:48;;;;;;;7.20;5.00;;;;;;;16.39;94.49;101244.98;105621;1253;69242;-58
2023/09/03 01:01:15;;;;;;;5.30;4.80;;;;;;;16.31;94.51;101241.85;105465;1254;75513;-58
2023/09/03 01:03:43;;;;;;;5.50;5.00;;;;;;;16.23;94.52;101242.91;105615;1256;82328;-58
2023/09/03 01:06:10;;;;;;;5.20;4.70;;;;;;;16.15;94.56;101242.05;105590;1254;73645;-58
2023/09/03 01:08:37;;;;;;;6.70;5.30;;;;;;;16.07;94.69;101245.96;105568;1256;69110;-58
2023/09/03 01:11:19;;;;;;;7.00;5.10;;;;;;;15.99;94.67;101243.34;105571;1255;69127;-58
2023/09/03 01:13:57;;;;;;;7.40;5.40;;;;;;;15.90;94.78;101240.23;105489;1254;75490;-58
2023/09/03 01:17:06;;;;;;;6.80;5.40;;;;;;;15.82;95.04;101241.12;105596;1253;83426;-58
2023/09/03 01:19:44;;;;;;;6.80;5.10;;;;;;;15.75;95.15;101242.34;105515;1252;72672;-58
2023/09/03 01:22:20;;;;;;;6.00;5.40;;;;;;;15.69;95.22;101245.23;105541;1254;69077;-59
2023/09/03 01:25:08;;;;;;;5.60;5.00;;;;;;;15.62;95.40;101246.38;105551;1254;69111;-58
2023/09/03 01:28:15;;;;;;;6.40;5.60;;;;;;;15.58;95.60;101247.94;105636;1254;74691;-58
2023/09/03 01:30:42;;;;;;;7.50;5.20;;;;;;;15.53;95.71;101258.41;105047;1262;83286;-58
2023/09/03 01:33:10;;;;;;;7.00;5.80;;;;;;;15.48;95.88;101259.52;105500;1254;72788;-58
2023/09/03 01:35:37;;;;;;;7.20;5.80;;;;;;;15.46;96.11;101256.07;105506;1254;69137;-58
2023/09/03 01:38:04;;;;;;;6.50;5.50;;;;;;;15.44;96.27;101250.90;105483;1256;69067;-59
2023/09/03 01:40:32;;;;;;;6.20;5.60;;;;;;;15.41;96.31;101252.76;105535;1256;75595;-58
2023/09/03 01:42:59;;;;;;;9.10;6.10;;;;;;;15.39;96.45;101252.13;105662;1254;82343;-58
2023/09/03 01:45:35;;;;;;;6.80;5.70;;;;;;;15.39;96.63;101254.61;105576;1257;72542;-58
2023/09/03 01:48:19;;;;;;;7.10;6.40;;;;;;;15.38;96.80;101250.42;105587;1255;69227;-58
2023/09/03 01:50:55;;;;;;;7.80;6.10;;;;;;;15.37;96.89;101246.78;105611;1254;69190;-58
2023/09/03 01:53:27;;;;;;;7.70;5.90;;;;;;;15.33;96.93;101240.08;105577;1256;75859;-58
2023/09/03 01:55:58;;;;;;;7.30;5.80;;;;;;;15.32;97.04;101237.30;105574;1253;83279;-58
2023/09/03 01:58:28;;;;;;;6.70;5.60;;;;;;;15.31;97.09;101234.23;105521;1254;73566;-58
2023/09/03 02:00:55;;;;;;;7.30;5.80;;;;;;;15.28;97.10;101234.13;105427;1258;69195;-58
2023/09/03 02:03:24;;;;;;;7.30;6.00;;;;;;;15.27;97.17;101233.83;105560;1254;69148;-58
2023/09/03 02:05:51;;;;;;;7.10;6.00;;;;;;;15.24;97.06;101236.07;105602;1254;74467;-58
2023/09/03 02:08:18;;;;;;;9.20;6.30;;;;;;;15.21;97.07;101235.31;105569;1255;83419;-58
2023/09/03 02:10:45;;;;;;;6.90;6.20;;;;;;;15.19;97.26;101237.52;105566;1256;72571;-58
2023/09/03 02:13:12;;;;;;;9.10;6.80;;;;;;;15.16;97.27;101239.77;105619;1252;69146;-58
2023/09/03 02:15:39;;;;;;;7.60;6.00;;;;;;;15.16;97.46;101241.71;105587;1256;69172;-58
2023/09/03 02:18:06;;;;;;;9.30;6.00;;;;;;;15.15;97.55;101240.33;105568;1254;74673;-59
2023/09/03 02:20:33;;;;;;;10.70;6.10;;;;;;;15.15;97.68;101241.56;105468;1257;83645;-58
2023/09/03 02:23:01;;;;;;;9.00;6.30;;;;;;;15.14;97.62;101237.04;105613;1254;72772;-58
2023/09/03 02:25:28;;;;;;;8.00;6.00;;;;;;;15.12;97.72;101236.05;105457;1257;69244;-58
2023/09/03 02:27:55;;;;;;;6.90;6.20;;;;;;;15.11;97.81;101235.02;105541;1253;69170;-59
2023/09/03 02:30:22;;;;;;;7.80;5.80;;;;;;;15.11;98.01;101233.13;105642;1256;75549;-59
2023/09/03 02:32:49;;;;;;;7.00;6.20;;;;;;;15.11;97.97;101234.70;105605;1256;83568;-58
2023/09/03 02:35:16;;;;;;;9.30;5.90;;;;;;;15.11;97.98;101232.26;105575;1254;72643;-58
2023/09/03 02:37:43;;;;;;;8.30;6.20;;;;;;;15.08;97.94;101233.75;105551;1255;69115;-58
2023/09/03 02:40:10;;;;;;;6.90;6.00;;;;;;;15.06;98.07;101235.97;105627;1254;69173;-58
2023/09/03 02:42:37;;;;;;;8.10;6.40;;;;;;;15.05;98.07;101241.31;105551;1254;74647;-58
2023/09/03 02:45:05;;;;;;;6.70;6.00;;;;;;;15.03;98.30;101241.17;105561;1256;82482;-58
2023/09/03 02:47:31;;;;;;;7.20;5.70;;;;;;;15.04;98.33;101237.98;105639;1254;73719;-58
2023/09/03 02:49:58;;;;;;;7.90;6.20;;;;;;;15.03;98.26;101232.60;105643;1252;69121;-59
2023/09/03 02:52:26;;;;;;;9.20;5.90;;;;;;;15.01;98.28;101231.58;105459;1253;69859;-58
2023/09/03 02:54:52;;;;;;;8.40;6.10;;;;;;;15.01;98.61;101226.48;105483;1252;75624;-58
2023/09/03 02:57:20;;;;;;;9.10;6.30;;;;;;;15.02;98.52;101222.76;105483;1256;82261;-58
2023/09/03 02:59:46;;;;;;;8.70;6.20;;;;;;;15.02;98.67;101223.30;105565;1255;72997;-58
2023/09/03 03:02:13;;;;;;;6.80;5.70;;;;;;;15.02;98.66;101219.59;105565;1254;69198;-58
2023/09/03 03:04:40;;;;;;;9.10;6.00;;;;;;;15.00;98.51;101226.73;105606;1254;69183;-58
2023/09/03 03:07:07;;;;;;;7.30;5.90;;;;;;;14.97;98.33;101238.45;105576;1254;75755;-58
2023/09/03 03:09:34;;;;;;;6.70;6.00;;;;;;;14.91;98.33;101236.41;105567;1255;82961;-58
2023/09/03 03:12:01;;;;;;;7.30;6.30;;;;;;;14.92;98.58;101231.81;105631;1254;72751;-58
2023/09/03 03:14:30;;;;;;;8.80;6.80;;;;;;;14.92;98.53;101231.10;105566;1254;69178;-58
2023/09/03 03:16:59;;;;;;;8.20;6.30;;;;;;;14.91;98.69;101224.80;105542;1254;69156;-58
2023/09/03 03:19:26;;;;;;;7.30;5.90;;;;;;;14.92;98.69;101226.34;105547;1253;75668;-58
2023/09/03 03:21:53;;;;;;;7.70;5.90;;;;;;;14.84;98.15;101226.67;105573;1254;83266;-59
2023/09/03 03:24:20;;;;;;;6.00;5.40;;;;;;;14.77;98.08;101225.06;105572;1256;73653;-58
2023/09/03 03:26:48;;;;;;;8.40;5.60;;;;;;;14.69;97.89;101220.45;105603;1253;69153;-58
2023/09/03 03:29:17;;;;;;;8.30;6.40;;;;;;;14.61;97.88;101221.48;105572;1256;69383;-58
2023/09/03 03:31:50;;;;;;;7.70;5.90;;;;;;;14.55;97.94;101222.27;105573;1254;75321;-58
2023/09/03 03:34:18;;;;;;;9.00;5.50;;;;;;;14.49;97.98;101222.98;105607;1253;82456;-58
2023/09/03 03:36:46;;;;;;;7.50;5.70;;;;;;;14.43;98.08;101221.47;105492;1254;72794;-58
2023/09/03 03:39:13;;;;;;;8.60;5.50;;;;;;;14.40;98.51;101220.86;105578;1256;69201;-58
2023/09/03 03:41:40;;;;;;;6.30;5.40;;;;;;;14.37;98.40;101227.84;105586;1254;69164;-58
2023/09/03 03:44:12;;;;;;;9.00;5.80;;;;;;;14.32;98.43;101233.33;105577;1256;74626;-59
2023/09/03 03:46:39;;;;;;;5.90;5.20;;;;;;;14.28;98.60;101235.60;105594;1254;82495;-58
2023/09/03 03:49:06;;;;;;;6.70;5.10;;;;;;;14.26;98.79;101234.10;105554;1254;73636;-58
2023/09/03 03:51:33;;;;;;;7.50;5.30;;;;;;;14.22;98.81;101230.70;105578;1254;69179;-58
2023/09/03 03:54:04;;;;;;;7.60;5.80;;;;;;;14.18;98.91;101230.51;105659;1256;69180;-59
2023/09/03 03:56:31;;;;;;;7.10;4.90;;;;;;;14.15;98.93;101236.80;105582;1255;74558;-58
2023/09/03 03:58:58;;;;;;;7.10;6.30;;;;;;;14.12;99.12;101236.94;105496;1256;82980;-58
2023/09/03 04:01:25;;;;;;;6.60;5.50;;;;;;;14.08;99.08;101238.81;105582;1254;73834;-58
2023/09/03 04:03:55;;;;;;;7.30;5.60;;;;;;;14.05;99.44;101239.09;105574;1254;69164;-59
2023/09/03 04:06:23;;;;;;;7.50;6.20;;;;;;;14.03;99.47;101239.89;105642;1256;69106;-58
2023/09/03 04:08:50;;;;;;;6.50;5.60;;;;;;;14.02;99.81;101239.75;105519;1253;75896;-58
2023/09/03 04:11:20;;;;;;;6.50;5.60;;;;;;;14.02;99.98;101239.23;105593;1255;83572;-58
2023/09/03 04:13:47;;;;;;;6.60;5.20;;;;;;;14.01;99.98;101238.73;105602;1251;72644;-58
2023/09/03 04:16:16;;;;;;;8.20;5.90;;;;;;;13.99;99.99;101234.04;105586;1254;69057;-58
2023/09/03 04:18:46;;;;;;;7.00;4.80;;;;;;;13.98;99.94;101236.57;105621;1254;69180;-59
2023/09/03 04:21:13;;;;;;;7.50;5.30;;;;;;;13.99;100.00;101237.75;105592;1254;74537;-58
2023/09/03 04:23:40;;;;;;;6.90;5.30;;;;;;;14.01;100.00;101241.19;105593;1256;83420;-58
2023/09/03 04:26:09;;;;;;;5.60;4.70;;;;;;;14.02;100.00;101245.17;105657;1254;73857;-58
2023/09/03 04:28:48;;;;;;;8.50;5.20;;;;;;;14.03;100.00;101241.64;105584;1252;69147;-58
2023/09/03 04:31:16;;;;;;;5.90;5.00;;;;;;;14.04;100.00;101237.58;105588;1252;69125;-58
2023/09/03 04:33:45;;;;;;;5.40;4.80;;;;;;;14.03;100.00;101239.39;105609;1255;75834;-58
2023/09/03 04:36:13;;;;;;;9.90;5.40;;;;;;;14.03;100.00;101242.15;105593;1252;83473;-58
2023/09/03 04:38:40;;;;;;;10.10;5.70;;;;;;;14.04;100.00;101242.31;105590;1254;73955;-56
2023/09/03 04:41:07;;;;;;;5.50;4.90;;;;;;;14.05;100.00;101248.95;105627;1255;69144;-57
2023/09/03 04:43:43;;;;;;;6.60;5.20;;;;;;;14.05;100.00;101255.42;105555;1252;69265;-58
2023/09/03 04:46:11;;;;;;;6.80;5.30;;;;;;;14.09;100.00;101255.85;105521;1252;75500;-58
2023/09/03 04:48:38;;;;;;;7.90;5.40;;;;;;;14.14;100.00;101253.52;105517;1256;83585;-57
2023/09/03 04:51:07;;;;;;;5.50;5.00;;;;;;;14.17;100.00;101254.30;105522;1252;71649;-57
2023/09/03 04:53:34;;;;;;;5.40;4.70;;;;;;;14.19;100.00;101255.96;105733;1255;69182;-57
2023/09/03 04:56:04;;;;;;;6.90;5.60;;;;;;;14.24;100.00;101256.33;105702;1256;69172;-57
2023/09/03 04:58:33;;;;;;;7.40;5.00;;;;;;;14.29;100.00;101259.45;105591;1254;75476;-56
2023/09/03 05:01:00;;;;;;;8.50;5.50;;;;;;;14.32;100.00;101263.02;105662;1255;83541;-57
2023/09/03 05:03:29;;;;;;;6.80;5.30;;;;;;;14.35;100.00;101263.98;105654;1251;72624;-54
2023/09/03 05:05:57;;;;;;;6.50;5.80;;;;;;;14.39;100.00;101271.56;105616;1256;69304;-57
2023/09/03 05:08:24;;;;;;;5.70;5.10;;;;;;;14.43;100.00;101277.52;105735;1253;69183;-56
2023/09/03 05:10:52;;;;;;;9.10;5.70;;;;;;;14.47;100.00;101276.69;105674;1254;74457;-58
2023/09/03 05:13:19;;;;;;;7.20;5.10;;;;;;;14.53;100.00;101275.77;105429;1257;83364;-57
2023/09/03 05:15:51;;;;;;;6.00;5.10;;;;;;;14.59;100.00;101278.02;105575;1254;72676;-57
2023/09/03 05:18:17;;;;;;;6.60;4.80;;;;;;;14.64;100.00;101279.92;105669;1254;69147;-57
2023/09/03 05:20:45;;;;;;;5.80;5.10;;;;;;;14.71;100.00;101279.29;105649;1255;69114;-57
2023/09/03 05:23:11;;;;;;;6.30;4.90;;;;;;;14.78;100.00;101283.23;105555;1256;75768;-58
2023/09/03 05:25:38;;;;;;;7.40;5.60;;;;;;;14.85;100.00;101284.20;105478;1257;83613;-57
2023/09/03 05:28:05;;;;;;;7.80;5.70;;;;;;;14.92;100.00;101281.78;105582;1254;73745;-58
2023/09/03 05:30:33;;;;;;;7.80;5.80;;;;;;;15.02;100.00;101288.77;105707;1256;69726;-57
2023/09/03 05:33:04;;;;;;;8.50;6.60;;;;;;;15.10;100.00;101284.55;105711;1255;69109;-58
2023/09/03 05:35:34;;;;;;;9.00;6.30;;;;;;;15.17;100.00;101289.01;105814;1255;75795;-58
2023/09/03 05:38:01;;;;;;;8.30;6.10;;;;;;;15.26;100.00;101290.23;105623;1254;83330;-58
2023/09/03 05:40:28;;;;;;;7.10;6.40;;;;;;;15.34;100.00;101291.30;105723;1254;72680;-57
2023/09/03 05:42:55;;;;;;;8.10;6.20;;;;;;;15.41;100.00;101294.34;105770;1254;69173;-56
2023/09/03 05:45:23;;;;;;;6.70;6.00;;;;;;;15.47;100.00;101297.06;105674;1253;69905;-57
2023/09/03 05:47:50;;;;;;;7.90;6.10;;;;;;;15.57;100.00;101299.65;105553;1254;75779;-57
2023/09/03 05:50:18;;;;;;;6.90;6.20;;;;;;;15.68;100.00;101301.30;105885;1256;83519;-57
2023/09/03 05:52:45;;;;;;;7.90;6.40;;;;;;;15.78;100.00;101301.72;105474;1254;73877;-57
2023/09/03 05:55:12;;;;;;;6.20;5.60;;;;;;;15.90;100.00;101301.38;105528;1257;69931;-57
2023/09/03 05:57:40;;;;;;;8.30;6.50;;;;;;;16.01;100.00;101295.59;105597;1254;69224;-57
2023/09/03 06:00:08;;;;;;;8.50;7.00;;;;;;;16.12;100.00;101294.90;105688;1253;74750;-57
2023/09/03 06:02:36;;;;;;;8.70;7.20;;;;;;;16.24;100.00;101296.83;105868;1254;83464;-57
2023/09/03 06:05:04;;;;;;;7.60;6.80;;;;;;;16.35;100.00;101303.02;105650;1254;73370;-57
2023/09/03 06:07:31;;;;;;;8.50;6.90;;;;;;;16.47;100.00;101311.64;105710;1256;69039;-57
2023/09/03 06:09:58;;;;;;;8.00;7.20;;;;;;;16.55;100.00;101319.88;105487;1254;69622;-58
2023/09/03 06:12:25;;;;;;;8.90;7.40;;;;;;;16.63;100.00;101317.75;105562;1255;75620;-57
2023/09/03 06:14:52;;;;;;;8.80;7.30;;;;;;;16.72;100.00;101320.15;105670;1256;83527;-57
2023/09/03 06:17:19;;;;;;;9.60;7.80;;;;;;;16.78;100.00;101321.82;105569;1254;72593;-57
2023/09/03 06:19:48;;;;;;;10.20;7.20;;;;;;;16.82;100.00;101327.11;105617;1254;69115;-58
2023/09/03 06:22:15;;;;;;;9.00;7.30;;;;;;;16.87;100.00;101328.46;105639;1255;69290;-58
2023/09/03 06:24:42;;;;;;;7.70;7.00;;;;;;;16.92;100.00;101325.20;105531;1256;74577;-57
2023/09/03 06:27:09;;;;;;;6.80;6.10;;;;;;;16.97;100.00;101328.17;105525;1254;83234;-58
2023/09/03 06:29:36;;;;;;;8.40;6.90;;;;;;;17.01;100.00;101325.14;105783;1254;73903;-57
2023/09/03 06:32:03;;;;;;;7.90;6.80;;;;;;;17.03;100.00;101328.55;105777;1256;69175;-58
2023/09/03 06:34:31;;;;;;;7.70;7.00;;;;;;;17.05;100.00;101325.10;105608;1256;69180;-57
2023/09/03 06:36:58;;;;;;;8.30;7.00;;;;;;;17.06;100.00;101325.94;105572;1254;75493;-57
2023/09/03 06:39:26;;;;;;;9.10;7.10;;;;;;;17.07;100.00;101328.89;105583;1254;82311;-57
2023/09/03 06:41:53;;;;;;;9.70;7.10;;;;;;;17.08;100.00;101331.85;105617;1256;73651;-58
2023/09/03 06:44:21;;;;;;;8.90;7.30;;;;;;;17.09;99.95;101329.50;105536;1256;69085;-57
2023/09/03 06:46:48;;;;;;;8.30;6.70;;;;;;;17.09;99.85;101327.92;105715;1256;69202;-55
2023/09/03 06:49:15;;;;;;;11.30;7.50;;;;;;;17.12;99.77;101328.48;105597;1254;74655;-57
2023/09/03 06:51:42;;;;;;;8.70;7.80;;;;;;;17.15;99.69;101330.80;105690;1255;83361;-57
2023/09/03 06:54:09;;;;;;;9.90;7.30;;;;;;;17.22;99.77;101334.02;105598;1254;72469;-58
2023/09/03 06:56:36;;;;;;;8.40;7.60;;;;;;;17.28;99.77;101335.80;105592;1254;69080;-57
2023/09/03 06:59:03;;;;;;;8.20;7.30;;;;;;;17.36;99.49;101338.75;105650;1255;69723;-57
2023/09/03 07:01:30;;;;;;;10.30;7.20;;;;;;;17.46;99.41;101343.41;105735;1254;75771;-57
2023/09/03 07:03:57;;;;;;;8.00;7.20;;;;;;;17.55;99.34;101345.36;105713;1255;82472;-58
2023/09/03 07:06:24;;;;;;;9.60;6.80;;;;;;;17.66;99.34;101351.38;105723;1252;72595;-56
2023/09/03 07:08:53;;;;;;;8.30;6.60;;;;;;;17.76;99.08;101350.17;105631;1253;69178;-57
2023/09/03 07:11:20;;;;;;;9.60;7.10;;;;;;;17.82;98.65;101353.20;105722;1264;69171;-57
2023/09/03 07:13:47;;;;;;;11.30;6.90;;;;;;;17.89;98.40;101351.47;105625;1254;75315;-57
2023/09/03 07:16:13;;;;;;;8.70;6.30;;;;;;;17.91;97.76;101349.73;105587;1254;82457;-57
2023/09/03 07:18:40;;;;;;;7.70;6.50;;;;;;;17.97;97.61;101350.29;105569;1254;73779;-58
2023/09/03 07:21:07;;;;;;;6.80;5.60;;;;;;;18.06;97.47;101355.32;105572;1254;69170;-57
2023/09/03 07:23:34;;;;;;;6.90;5.70;;;;;;;18.16;97.24;101359.03;105714;1255;69112;-57
2023/09/03 07:26:04;;;;;;;7.20;6.00;;;;;;;18.27;97.08;101364.30;105607;1254;74496;-58
2023/09/03 07:28:31;;;;;;;7.00;6.20;;;;;;;18.41;97.01;101366.19;105653;1254;83421;-57
2023/09/03 07:31:01;;;;;;;6.50;5.20;;;;;;;18.56;96.64;101368.88;105669;1254;73792;-58
2023/09/03 07:33:28;;;;;;;6.70;5.80;;;;;;;18.71;96.28;101371.45;105765;1256;69119;-58
2023/09/03 07:35:58;;;;;;;8.20;5.70;;;;;;;18.85;95.67;101370.72;105707;1256;69224;-58
2023/09/03 07:38:27;;;;;;;5.80;5.10;;;;;;;19.00;95.45;101371.09;105779;1255;75604;-57
2023/09/03 07:40:54;;;;;;;7.40;5.10;;;;;;;19.15;95.30;101373.56;105623;1255;83624;-58
2023/09/03 07:43:21;;;;;;;8.00;4.50;;;;;;;19.34;95.04;101372.80;105597;1251;72619;-58
2023/09/03 07:45:48;;;;;;;6.00;4.90;;;;;;;19.50;94.32;101372.23;105701;1256;69151;-57
2023/09/03 07:48:15;;;;;;;5.30;4.10;;;;;;;19.64;93.93;101371.41;105621;1256;69182;-57
2023/09/03 07:50:42;;;;;;;7.70;5.10;;;;;;;19.81;93.80;101371.86;105737;1254;74482;-57
2023/09/03 07:53:09;;;;;;;4.90;4.00;;;;;;;19.91;92.99;101372.33;105640;1256;82894;-58
2023/09/03 07:55:36;;;;;;;6.20;4.50;;;;;;;19.98;92.45;101375.95;105628;1254;73650;-57
2023/09/03 07:58:03;;;;;;;4.70;4.20;;;;;;;20.03;91.69;101379.23;105480;1256;188693;-59
2023/09/03 08:00:31;;;;;;;4.80;4.30;;;;;;;20.10;91.43;101383.56;105749;1256;69297;-58
2023/09/03 08:02:58;;;;;;;4.70;3.90;;;;;;;20.23;91.31;101389.36;105855;1254;75764;-58
2023/09/03 08:05:25;;;;;;;7.40;4.00;;;;;;;20.31;90.56;101384.80;105719;1257;83667;-58
2023/09/03 08:07:53;;;;;;;4.60;4.10;;;;;;;20.34;89.97;101386.57;105867;1255;71286;-57
2023/09/03 08:10:22;;;;;;;6.30;4.60;;;;;;;20.40;89.66;101386.87;105712;1252;69167;-57
2023/09/03 08:12:52;;;;;;;6.70;4.20;;;;;;;20.45;89.04;101393.48;105603;1255;69253;-58
2023/09/03 08:15:19;;;;;;;5.50;4.10;;;;;;;20.49;88.71;101402.10;105758;1254;74555;-57
2023/09/03 08:18:04;;;;;;;6.20;4.40;;;;;;;20.57;87.92;101405.55;105741;1256;82960;-59
2023/09/03 08:20:31;;;;;;;6.80;4.60;;;;;;;20.62;87.76;101408.25;105691;1253;72917;-59
2023/09/03 08:22:58;;;;;;;5.10;4.30;;;;;;;20.74;87.83;101400.77;105720;1252;69159;-59
2023/09/03 08:25:26;;;;;;;5.90;4.20;;;;;;;20.84;87.30;101398.65;105584;1253;69186;-59
2023/09/03 08:27:53;;;;;;;6.50;3.90;;;;;;;20.97;86.83;101400.49;105633;1256;74534;-59
2023/09/03 08:30:20;;;;;;;7.30;4.40;;;;;;;21.11;86.53;101400.48;105609;1256;83304;-59
2023/09/03 08:32:47;;;;;;;6.10;4.00;;;;;;;21.27;86.23;101406.21;105600;1254;72558;-59
2023/09/03 08:35:14;;;;;;;6.30;3.90;;;;;;;21.36;85.27;101403.10;105582;1254;69209;-60
2023/09/03 08:37:41;;;;;;;5.50;4.00;;;;;;;21.44;84.90;101408.67;105643;1256;69163;-60
2023/09/03 08:40:09;;;;;;;5.40;3.60;;;;;;;21.53;84.19;101408.71;105587;1254;73634;-60
2023/09/03 08:42:40;;;;;;;5.00;3.80;;;;;;;21.58;83.59;101408.00;105587;1256;83333;-60
2023/09/03 08:45:11;;;;;;;4.80;3.40;;;;;;;21.64;83.05;101408.73;105623;1255;73560;-60
2023/09/03 08:47:39;;;;;;;4.50;3.30;;;;;;;21.75;82.42;101410.63;105604;1256;69214;-60
2023/09/03 08:50:08;;;;;;;4.20;3.00;;;;;;;21.88;82.13;101414.73;105591;1256;69198;-59
2023/09/03 08:52:39;;;;;;;3.30;2.30;;;;;;;21.98;81.38;101416.73;105537;1254;75834;-60
2023/09/03 08:55:07;;;;;;;3.90;2.50;;;;;;;22.06;81.06;101416.50;105529;1254;83413;-60
2023/09/03 08:57:37;;;;;;;4.00;2.90;;;;;;;22.13;80.36;101421.55;105578;1256;73901;-59
2023/09/03 09:00:06;;;;;;;3.80;2.70;;;;;;;22.17;79.75;101420.90;105567;1254;69126;-60
2023/09/03 09:02:34;;;;;;;3.90;2.40;;;;;;;22.25;79.11;101423.20;105608;1254;69807;-60
2023/09/03 09:05:06;;;;;;;4.70;2.90;;;;;;;22.32;78.22;101423.50;105566;1254;74527;-60
2023/09/03 09:07:33;;;;;;;7.20;2.50;;;;;;;22.32;77.71;101419.36;105497;1256;83642;-60
2023/09/03 09:10:06;;;;;;;4.30;2.50;;;;;;;22.38;77.33;101421.27;105588;1252;72758;-61
2023/09/03 09:12:42;;;;;;;3.50;2.50;;;;;;;22.41;76.92;101422.81;105601;1256;69201;-61
2023/09/03 09:15:09;;;;;;;3.70;2.30;;;;;;;22.43;76.22;101428.39;105668;1254;69192;-60
2023/09/03 09:17:37;;;;;;;4.40;2.80;;;;;;;22.46;76.18;101428.92;105586;1256;74678;-59
2023/09/03 09:20:06;;;;;;;4.50;2.50;;;;;;;22.50;75.61;101435.73;105561;1256;83020;-59
2023/09/03 09:22:59;;;;;;;3.30;2.70;;;;;;;22.49;74.85;101440.63;105595;1254;73514;-58
2023/09/03 09:25:26;;;;;;;4.00;2.50;;;;;;;22.41;74.55;101438.84;105447;1252;69131;-59
2023/09/03 09:27:55;;;;;;;3.40;2.80;;;;;;;22.33;73.90;101443.33;105625;1256;69424;-59
2023/09/03 09:30:26;;;;;;;4.10;2.80;;;;;;;22.28;73.62;101447.98;105659;1254;75677;-59
2023/09/03 09:33:07;;;;;;;4.70;2.90;;;;;;;22.28;73.80;101442.25;105640;1254;83309;-59
2023/09/03 09:35:35;;;;;;;3.90;2.70;;;;;;;22.28;73.59;101440.29;105538;1256;73893;-59
2023/09/03 09:38:07;;;;;;;5.10;2.70;;;;;;;22.36;74.00;101433.16;105611;1254;69160;-59
2023/09/03 09:40:37;;;;;;;5.90;2.80;;;;;;;22.51;74.08;101429.94;105634;1255;69700;-59
2023/09/03 09:43:07;;;;;;;3.70;2.90;;;;;;;22.74;74.06;101435.80;105654;1254;74505;-58
2023/09/03 09:45:52;;;;;;;4.20;2.70;;;;;;;22.94;73.54;101433.65;105625;1254;82493;-59
2023/09/03 09:48:19;;;;;;;4.20;2.80;;;;;;;23.14;72.81;101428.42;105483;1254;72610;-59
2023/09/03 09:50:47;;;;;;;3.00;2.30;;;;;;;23.28;71.85;101430.50;105588;1257;69301;-59
2023/09/03 09:53:22;;;;;;;4.20;2.70;;;;;;;23.43;71.40;101430.23;105617;1257;69183;-61
2023/09/03 09:56:00;;;;;;;3.40;1.90;;;;;;;23.47;70.52;101423.89;105562;1257;75697;-59
2023/09/03 09:58:41;;;;;;;4.00;2.20;;;;;;;23.50;70.13;101425.95;105593;1253;82451;-59
2023/09/03 10:01:08;;;;;;;3.80;2.40;;;;;;;23.63;70.10;101421.08;105539;1253;73685;-60
2023/09/03 10:03:49;;;;;;;5.00;2.00;;;;;;;23.71;69.43;101419.05;105619;1256;69189;-59
2023/09/03 10:06:18;;;;;;;6.00;2.10;;;;;;;23.85;69.11;101422.48;105619;1257;69186;-60
2023/09/03 10:08:47;;;;;;;3.60;2.40;;;;;;;24.06;69.21;101427.04;105640;1255;75814;-60
2023/09/03 10:11:19;;;;;;;3.70;2.60;;;;;;;24.28;68.44;101425.02;105604;1253;83302;-59
2023/09/03 10:13:47;;;;;;;4.10;2.10;;;;;;;24.42;67.84;101414.11;105654;1254;73894;-64
2023/09/03 10:16:21;;;;;;;3.30;2.10;;;;;;;24.50;67.04;101410.27;105624;1256;69275;-59
2023/09/03 10:18:49;;;;;;;4.70;2.10;;;;;;;24.57;66.58;101411.64;105585;1252;69096;-59
2023/09/03 10:21:21;;;;;;;3.00;2.30;;;;;;;24.62;66.16;101418.90;105666;1257;75450;-59
2023/09/03 10:24:08;;;;;;;2.70;2.10;;;;;;;24.63;65.64;101416.21;105486;1254;82351;-59
2023/09/03 10:26:40;;;;;;;2.20;1.90;;;;;;;24.62;65.41;101411.22;105558;1254;73051;-59
2023/09/03 10:29:10;;;;;;;4.30;1.90;;;;;;;24.51;64.67;101411.23;105577;1254;69205;-59
2023/09/03 10:31:38;;;;;;;2.30;1.60;;;;;;;24.45;64.43;101411.86;105631;1252;69169;-57
2023/09/03 10:34:10;;;;;;;2.60;2.00;;;;;;;24.45;64.04;101412.96;105535;1254;75500;-58
2023/09/03 10:36:37;;;;;;;2.60;1.80;;;;;;;24.45;63.86;101412.76;105562;1256;83385;-57
2023/09/03 10:39:22;;;;;;;2.40;1.90;;;;;;;24.59;64.03;101417.05;105552;1254;72618;-58
2023/09/03 10:42:18;;;;;;;4.00;2.00;;;;;;;24.85;63.92;101419.02;105616;1254;69194;-58
2023/09/03 10:44:53;;;;;;;3.80;1.80;;;;;;;25.06;63.44;101422.72;105594;1254;69186;-58
2023/09/03 10:47:20;;;;;;;4.00;1.90;;;;;;;25.13;62.68;101421.59;105608;1254;75920;-58
2023/09/03 10:49:49;;;;;;;3.80;2.00;;;;;;;25.18;62.27;101419.43;105659;1256;82296;-59
2023/09/03 10:52:26;;;;;;;3.00;2.10;;;;;;;25.24;61.77;101426.80;105607;1253;72592;-59
2023/09/03 10:55:21;;;;;;;2.10;1.70;;;;;;;25.35;61.05;101438.91;105586;1254;69326;-59
2023/09/03 10:58:16;;;;;;;2.10;1.70;;;;;;;25.54;60.59;101445.01;105631;1255;69168;-60
2023/09/03 11:01:21;;;;;;;4.20;1.80;;;;;;;25.64;60.16;101446.02;105556;1255;75712;-59
2023/09/03 11:03:49;;;;;;;2.70;1.80;;;;;;;25.58;59.11;101442.06;105586;1255;83120;-59
2023/09/03 11:06:21;;;;;;;2.30;2.00;;;;;;;25.61;59.39;101436.58;105682;1255;73586;-60
2023/09/03 11:09:09;;;;;;;2.20;1.90;;;;;;;25.75;59.15;101435.23;105606;1256;69194;-59
2023/09/03 11:11:40;;;;;;;2.10;1.90;;;;;;;25.82;58.73;101434.29;105615;1256;69122;-59
2023/09/03 11:14:07;;;;;;;2.60;1.90;;;;;;;25.91;58.38;101436.97;105493;1254;76117;-59
2023/09/03 11:16:42;;;;;;;2.50;1.60;;;;;;;25.90;57.92;101436.83;105545;1254;83379;-59
2023/09/03 11:19:08;;;;;;;5.30;1.80;;;;;;;26.07;57.95;101437.16;105597;1256;71950;-59
2023/09/03 11:21:37;;;;;;;2.60;1.70;;;;;;;26.24;57.79;101438.23;105531;1255;69299;-59
2023/09/03 11:24:06;;;;;;;2.20;1.60;;;;;;;26.40;57.54;101441.13;105522;1256;69211;-60
2023/09/03 11:26:34;;;;;;;2.80;1.80;;;;;;;26.49;56.73;101435.84;105549;1254;75579;-59